createdAt,value
2022-10-15T00:01:51.923Z,9.28
2022-10-15T00:04:21.199Z,9.33
2022-10-15T00:06:49.668Z,9.34
2022-10-15T00:09:20.329Z,9.37
2022-10-15T00:11:49.068Z,9.41
2022-10-15T00:14:17.720Z,9.42
2022-10-15T00:16:46.597Z,9.41
2022-10-15T00:19:15.510Z,9.41
2022-10-15T00:21:44.124Z,9.43
2022-10-15T00:24:12.429Z,9.41
2022-10-15T00:26:42.411Z,9.38
2022-10-15T00:29:11.049Z,9.39
2022-10-15T00:31:39.703Z,9.38
2022-10-15T00:34:08.522Z,9.43
2022-10-15T00:36:38.602Z,9.47
2022-10-15T00:39:08.425Z,9.52
2022-10-15T00:41:39.205Z,9.66
2022-10-15T00:44:40.970Z,9.75
2022-10-15T00:47:18.307Z,9.84
2022-10-15T00:49:52.691Z,9.84
2022-10-15T00:52:27.324Z,9.88
2022-10-15T00:55:01.236Z,9.90
2022-10-15T00:57:31.864Z,9.90
2022-10-15T01:00:04.897Z,9.92
2022-10-15T01:02:35.723Z,10.00
2022-10-15T01:05:05.785Z,10.06
2022-10-15T01:07:34.145Z,10.01
2022-10-15T01:10:04.780Z,10.00
2022-10-15T01:12:46.046Z,10.07
2022-10-15T01:15:20.112Z,10.11
2022-10-15T01:17:57.923Z,10.10
2022-10-15T01:21:10.609Z,10.17
2022-10-15T01:24:32.004Z,10.18
2022-10-15T01:27:50.834Z,10.21
2022-10-15T01:30:31.307Z,10.24
2022-10-15T01:33:20.939Z,10.27
2022-10-15T01:35:53.310Z,10.42
2022-10-15T01:38:44.347Z,10.42
2022-10-15T01:41:21.041Z,10.40
2022-10-15T01:43:58.705Z,10.38
2022-10-15T01:46:50.745Z,10.37
2022-10-15T01:49:23.002Z,10.40
2022-10-15T01:51:53.126Z,10.34
2022-10-15T01:54:25.287Z,10.40
2022-10-15T01:56:57.089Z,10.44
2022-10-15T01:59:29.359Z,10.51
2022-10-15T02:01:59.707Z,10.53
2022-10-15T02:04:30.282Z,10.50
2022-10-15T02:07:04.307Z,10.49
2022-10-15T02:09:43.723Z,10.60
2022-10-15T02:12:28.608Z,10.57
2022-10-15T02:15:03.049Z,10.59
2022-10-15T02:17:40.685Z,10.66
2022-10-15T02:20:16.376Z,10.67
2022-10-15T02:22:51.969Z,10.71
2022-10-15T02:25:23.921Z,10.68
2022-10-15T02:27:55.963Z,10.71
2022-10-15T02:30:26.049Z,10.75
2022-10-15T02:33:00.579Z,10.71
2022-10-15T02:35:30.660Z,10.69
2022-10-15T02:38:04.695Z,10.53
2022-10-15T02:40:36.497Z,10.38
2022-10-15T02:43:08.647Z,10.26
2022-10-15T02:45:38.484Z,10.25
2022-10-15T02:48:09.526Z,10.17
2022-10-15T02:50:38.330Z,10.09
2022-10-15T02:53:07.641Z,9.96
2022-10-15T02:55:36.108Z,9.55
2022-10-15T02:58:04.678Z,8.99
2022-10-15T03:00:33.147Z,8.73
2022-10-15T03:03:01.727Z,8.57
2022-10-15T03:05:33.092Z,8.38
2022-10-15T03:08:02.308Z,8.09
2022-10-15T03:10:31.776Z,8.03
2022-10-15T03:13:04.856Z,7.85
2022-10-15T03:15:33.439Z,7.57
2022-10-15T03:18:01.906Z,7.46
2022-10-15T03:20:32.596Z,7.43
2022-10-15T03:23:01.613Z,7.48
2022-10-15T03:25:29.976Z,7.54
2022-10-15T03:27:58.841Z,7.49
2022-10-15T03:30:27.927Z,7.33
2022-10-15T03:32:56.679Z,7.25
2022-10-15T03:35:25.145Z,7.27
2022-10-15T03:37:55.533Z,7.16
2022-10-15T03:40:24.314Z,7.12
2022-10-15T03:42:53.733Z,7.04
2022-10-15T03:45:22.220Z,7.00
2022-10-15T03:47:50.824Z,6.94
2022-10-15T03:50:19.543Z,6.89
2022-10-15T03:52:48.396Z,6.94
2022-10-15T03:55:18.710Z,7.01
2022-10-15T03:57:47.958Z,7.00
2022-10-15T04:00:18.057Z,6.93
2022-10-15T04:02:46.777Z,6.88
2022-10-15T04:05:15.161Z,6.86
2022-10-15T04:07:43.812Z,6.70
2022-10-15T04:10:12.588Z,6.62
2022-10-15T04:12:42.781Z,6.56
2022-10-15T04:15:11.630Z,6.57
2022-10-15T04:17:41.433Z,6.60
2022-10-15T04:20:13.145Z,6.56
2022-10-15T04:22:41.590Z,6.48
2022-10-15T04:25:12.340Z,6.50
2022-10-15T04:27:42.949Z,6.46
2022-10-15T04:30:14.164Z,6.54
2022-10-15T04:32:42.697Z,6.54
2022-10-15T04:35:11.304Z,6.54
2022-10-15T04:37:39.708Z,6.55
2022-10-15T04:40:10.208Z,6.60
2022-10-15T04:42:39.082Z,6.58
2022-10-15T04:45:10.469Z,6.67
2022-10-15T04:47:39.036Z,6.66
2022-10-15T04:50:08.645Z,6.69
2022-10-15T04:52:37.162Z,6.74
2022-10-15T04:55:06.345Z,6.84
2022-10-15T04:57:34.877Z,6.80
2022-10-15T05:00:03.245Z,6.76
2022-10-15T05:02:34.023Z,6.84
2022-10-15T05:05:02.794Z,6.90
2022-10-15T05:07:31.269Z,6.91
2022-10-15T05:09:59.966Z,6.94
2022-10-15T05:12:28.272Z,6.94
2022-10-15T05:14:56.643Z,6.99
2022-10-15T05:17:25.689Z,6.97
2022-10-15T05:19:56.062Z,6.99
2022-10-15T05:22:24.669Z,6.93
2022-10-15T05:24:53.414Z,7.02
2022-10-15T05:27:21.838Z,6.96
2022-10-15T05:29:50.249Z,7.01
2022-10-15T05:34:52.017Z,6.88
2022-10-15T05:37:22.636Z,6.90
2022-10-15T05:39:51.423Z,7.05
2022-10-15T05:42:19.976Z,6.98
2022-10-15T05:44:48.286Z,7.02
2022-10-15T05:47:16.767Z,7.01
2022-10-15T05:49:45.417Z,7.01
2022-10-15T05:52:13.989Z,6.96
2022-10-15T05:54:43.999Z,7.07
2022-10-15T05:57:12.419Z,7.08
2022-10-15T05:59:41.080Z,7.07
2022-10-15T06:02:16.253Z,7.07
2022-10-15T06:04:45.048Z,7.11
2022-10-15T06:07:13.498Z,7.11
2022-10-15T06:09:43.364Z,7.16
2022-10-15T06:12:11.708Z,7.14
2022-10-15T06:14:40.469Z,7.19
2022-10-15T06:17:10.452Z,7.30
2022-10-15T06:19:47.895Z,7.30
2022-10-15T06:22:31.111Z,7.34
2022-10-15T06:25:05.696Z,7.38
2022-10-15T06:27:36.099Z,7.39
2022-10-15T06:30:09.555Z,7.33
2022-10-15T06:32:38.849Z,7.33
2022-10-15T06:35:10.079Z,7.33
2022-10-15T06:38:02.883Z,7.39
2022-10-15T06:41:19.792Z,7.43
2022-10-15T06:44:12.312Z,7.37
2022-10-15T06:46:43.416Z,7.39
2022-10-15T06:49:31.155Z,7.48
2022-10-15T06:52:03.766Z,7.41
2022-10-15T06:54:36.129Z,7.43
2022-10-15T06:57:34.054Z,7.44
2022-10-15T07:00:03.878Z,7.45
2022-10-15T07:02:39.603Z,7.52
2022-10-15T07:05:15.559Z,7.51
2022-10-15T07:07:45.104Z,7.52
2022-10-15T07:10:27.505Z,7.53
2022-10-15T07:13:01.982Z,7.64
2022-10-15T07:15:31.035Z,7.65
2022-10-15T07:18:03.089Z,7.75
2022-10-15T07:20:32.879Z,7.81
2022-10-15T07:23:04.003Z,7.86
2022-10-15T07:25:32.961Z,7.92
2022-10-15T07:28:09.060Z,7.96
2022-10-15T07:30:43.387Z,7.99
2022-10-15T07:33:14.312Z,7.99
2022-10-15T07:35:42.649Z,8.09
2022-10-15T07:38:18.188Z,8.05
2022-10-15T07:40:47.791Z,8.08
2022-10-15T07:43:24.762Z,8.12
2022-10-15T07:45:54.504Z,8.15
2022-10-15T07:48:23.941Z,8.20
2022-10-15T07:50:57.071Z,8.27
2022-10-15T07:53:26.069Z,8.27
2022-10-15T07:55:55.790Z,8.29
2022-10-15T07:58:26.841Z,8.42
2022-10-15T08:01:02.183Z,8.53
2022-10-15T08:03:31.374Z,8.60
2022-10-15T08:06:05.670Z,8.69
2022-10-15T08:08:41.311Z,8.65
2022-10-15T08:11:13.810Z,8.76
2022-10-15T08:13:47.319Z,8.81
2022-10-15T08:16:19.915Z,8.89
2022-10-15T08:18:48.392Z,9.11
2022-10-15T08:21:22.902Z,9.18
2022-10-15T08:23:56.739Z,9.32
2022-10-15T08:26:33.461Z,9.37
2022-10-15T08:29:05.877Z,9.51
2022-10-15T08:31:40.189Z,9.72
2022-10-15T08:34:10.117Z,9.87
2022-10-15T08:36:39.575Z,9.71
2022-10-15T08:39:09.496Z,9.37
2022-10-15T08:41:53.695Z,9.30
2022-10-15T08:44:33.573Z,9.32
2022-10-15T08:47:08.469Z,9.49
2022-10-15T08:49:49.310Z,9.43
2022-10-15T08:52:26.580Z,9.65
2022-10-15T08:55:05.283Z,9.86
2022-10-15T08:57:40.639Z,10.08
2022-10-15T09:00:17.599Z,10.29
2022-10-15T09:02:56.439Z,10.28
2022-10-15T09:05:32.800Z,10.16
2022-10-15T09:08:14.787Z,10.16
2022-10-15T09:10:50.575Z,10.14
2022-10-15T09:13:30.134Z,10.24
2022-10-15T09:16:12.515Z,10.13
2022-10-15T09:18:46.032Z,10.26
2022-10-15T09:21:17.873Z,10.43
2022-10-15T09:23:47.581Z,10.33
2022-10-15T09:26:27.711Z,10.01
2022-10-15T09:29:05.552Z,9.96
2022-10-15T09:31:45.020Z,9.80
2022-10-15T09:34:26.371Z,9.66
2022-10-15T09:37:00.657Z,9.29
2022-10-15T09:39:43.681Z,9.09
2022-10-15T09:42:29.023Z,9.16
2022-10-15T09:45:01.975Z,9.35
2022-10-15T09:47:35.174Z,9.68
2022-10-15T09:50:05.294Z,10.03
2022-10-15T09:52:58.763Z,10.15
2022-10-15T09:55:39.702Z,10.21
2022-10-15T09:58:14.205Z,10.22
2022-10-15T10:01:04.334Z,10.18
2022-10-15T10:03:46.429Z,10.15
2022-10-15T10:06:26.096Z,10.40
2022-10-15T10:09:01.665Z,10.61
2022-10-15T10:11:50.386Z,10.69
2022-10-15T10:14:34.572Z,10.83
2022-10-15T10:17:09.480Z,10.92
2022-10-15T10:19:41.561Z,10.86
2022-10-15T10:22:19.878Z,10.81
2022-10-15T10:25:24.218Z,10.64
2022-10-15T10:27:54.760Z,10.54
2022-10-15T10:30:27.663Z,10.55
2022-10-15T10:33:02.092Z,10.55
2022-10-15T10:35:38.169Z,10.59
2022-10-15T10:38:07.064Z,10.60
2022-10-15T10:40:38.266Z,10.67
2022-10-15T10:43:13.366Z,10.67
2022-10-15T10:45:55.580Z,10.66
2022-10-15T10:48:26.730Z,10.89
2022-10-15T10:51:10.523Z,11.23
2022-10-15T10:53:56.219Z,11.40
2022-10-15T10:56:28.405Z,11.63
2022-10-15T10:59:03.558Z,11.84
2022-10-15T11:01:34.361Z,12.09
2022-10-15T11:04:03.388Z,12.06
2022-10-15T11:07:01.304Z,12.08
2022-10-15T11:09:52.317Z,12.33
2022-10-15T11:12:41.168Z,12.49
2022-10-15T11:15:34.294Z,12.40
2022-10-15T11:20:58.803Z,12.41
2022-10-15T11:23:48.817Z,12.61
2022-10-15T11:26:41.446Z,12.82
2022-10-15T11:29:30.661Z,12.83
2022-10-15T11:33:02.262Z,13.00
2022-10-15T11:35:53.983Z,13.01
2022-10-15T11:38:33.110Z,13.11
2022-10-15T11:49:45.107Z,13.55
2022-10-15T11:52:43.292Z,13.80
2022-10-15T11:55:19.503Z,13.59
2022-10-15T11:57:53.376Z,13.66
2022-10-15T12:00:34.139Z,13.99
2022-10-15T12:03:09.342Z,13.98
2022-10-15T12:05:44.552Z,14.04
2022-10-15T12:08:15.568Z,14.07
2022-10-15T12:11:04.306Z,14.13
2022-10-15T12:13:41.121Z,13.64
2022-10-15T12:16:25.602Z,13.81
2022-10-15T12:19:01.715Z,13.80
2022-10-15T12:21:39.750Z,13.83
2022-10-15T12:24:44.978Z,13.73
2022-10-15T12:27:18.048Z,13.54
2022-10-15T12:29:46.829Z,13.19
2022-10-15T12:32:25.549Z,12.82
2022-10-15T12:35:03.215Z,12.30
2022-10-15T12:37:37.228Z,11.18
2022-10-15T12:40:25.188Z,10.45
2022-10-15T12:42:57.449Z,9.77
2022-10-15T12:45:34.634Z,9.33
2022-10-15T12:48:40.425Z,9.04
2022-10-15T12:51:35.265Z,8.68
2022-10-15T12:54:42.291Z,8.67
2022-10-15T12:57:47.944Z,8.64
2022-10-15T13:00:38.702Z,8.78
2022-10-15T13:03:17.940Z,9.01
2022-10-15T13:05:50.149Z,9.41
2022-10-15T13:08:24.794Z,9.67
2022-10-15T13:10:57.637Z,9.75
2022-10-15T13:13:29.966Z,10.02
2022-10-15T13:16:01.179Z,10.64
2022-10-15T13:18:33.669Z,11.00
2022-10-15T13:23:33.476Z,11.03
2022-10-15T13:26:22.861Z,11.13
2022-10-15T13:28:55.348Z,11.29
2022-10-15T13:31:30.342Z,11.42
2022-10-15T13:34:12.591Z,11.54
2022-10-15T13:36:41.291Z,11.42
2022-10-15T13:39:24.882Z,11.57
2022-10-15T13:42:17.483Z,11.55
2022-10-15T13:44:59.421Z,11.78
2022-10-15T13:48:09.744Z,12.06
2022-10-15T13:50:40.149Z,12.48
2022-10-15T13:53:16.877Z,12.61
2022-10-15T13:55:49.004Z,12.69
2022-10-15T13:58:26.589Z,12.61
2022-10-15T14:01:11.621Z,12.45
2022-10-15T14:07:27.944Z,12.30
2022-10-15T14:13:50.230Z,13.11
2022-10-15T14:16:58.683Z,12.86
2022-10-15T14:20:26.375Z,12.46
2022-10-15T14:22:59.299Z,12.40
2022-10-15T14:25:59.693Z,12.26
2022-10-15T14:28:52.004Z,12.30
2022-10-15T14:31:40.234Z,12.29
2022-10-15T14:34:36.104Z,12.44
2022-10-15T14:37:40.465Z,12.98
2022-10-15T14:40:22.482Z,13.94
2022-10-15T14:43:07.483Z,14.59
2022-10-15T14:45:44.987Z,14.90
2022-10-15T14:48:25.788Z,15.74
2022-10-15T15:20:08.820Z,14.76
2022-10-15T15:22:38.422Z,14.37
2022-10-15T15:25:14.941Z,14.25
2022-10-15T15:27:46.134Z,14.60
2022-10-15T15:30:19.435Z,15.18
2022-10-15T15:32:51.948Z,14.59
2022-10-15T15:35:29.021Z,14.04
2022-10-15T15:37:58.707Z,13.75
2022-10-15T15:40:29.111Z,13.32
2022-10-15T15:42:57.969Z,13.04
2022-10-15T15:45:28.491Z,12.80
2022-10-15T15:48:02.187Z,12.80
2022-10-15T15:50:33.478Z,12.49
2022-10-15T15:53:03.475Z,13.28
2022-10-15T15:55:31.993Z,14.69
2022-10-15T15:58:00.770Z,15.23
2022-10-15T16:00:30.546Z,15.60
2022-10-15T16:03:01.255Z,15.84
2022-10-15T16:05:32.558Z,16.07
2022-10-15T16:08:01.881Z,15.52
2022-10-15T16:10:37.162Z,15.38
2022-10-15T16:13:06.911Z,15.43
2022-10-15T16:15:36.970Z,14.29
2022-10-15T16:18:05.698Z,13.74
2022-10-15T16:20:40.665Z,12.78
2022-10-15T16:23:10.598Z,12.33
2022-10-15T16:25:39.314Z,12.17
2022-10-15T16:28:07.785Z,11.96
2022-10-15T16:30:38.223Z,12.01
2022-10-15T16:35:43.387Z,11.92
2022-10-15T16:38:11.719Z,11.80
2022-10-15T16:40:40.289Z,11.79
2022-10-15T16:43:10.851Z,11.76
2022-10-15T16:45:43.691Z,11.71
2022-10-15T16:48:13.346Z,11.73
2022-10-15T16:50:43.686Z,11.70
2022-10-15T16:53:12.193Z,11.57
2022-10-15T16:55:47.142Z,11.55
2022-10-15T16:58:17.237Z,11.54
2022-10-15T17:00:45.668Z,11.50
2022-10-15T17:03:16.736Z,11.45
2022-10-15T17:05:46.904Z,11.43
2022-10-15T17:08:17.006Z,11.39
2022-10-15T17:10:49.247Z,11.34
2022-10-15T17:13:31.659Z,11.23
2022-10-15T17:16:09.632Z,11.16
2022-10-15T17:18:39.906Z,11.18
2022-10-15T17:21:13.221Z,11.18
2022-10-15T17:23:44.494Z,11.08
2022-10-15T17:26:16.491Z,11.03
2022-10-15T17:28:46.470Z,10.99
2022-10-15T17:31:21.192Z,10.99
2022-10-15T17:33:50.693Z,10.99
2022-10-15T17:36:23.806Z,10.94
2022-10-15T17:38:52.649Z,10.89
2022-10-15T17:41:31.663Z,10.84
2022-10-15T17:44:01.212Z,10.78
2022-10-15T17:46:35.897Z,10.74
2022-10-15T17:49:08.176Z,10.71
2022-10-15T17:51:39.061Z,10.67
2022-10-15T17:54:07.823Z,10.69
2022-10-15T17:56:38.639Z,10.60
2022-10-15T17:59:12.900Z,10.58
2022-10-15T18:01:57.984Z,10.48
2022-10-15T18:04:28.286Z,10.43
2022-10-15T18:06:59.671Z,10.42
2022-10-15T18:09:30.141Z,10.40
2022-10-15T18:12:01.770Z,10.44
2022-10-15T18:14:32.494Z,10.35
2022-10-15T18:17:04.427Z,10.33
2022-10-15T18:19:33.208Z,10.33
2022-10-15T18:22:11.247Z,10.28
2022-10-15T18:24:42.278Z,10.22
2022-10-15T18:27:13.758Z,10.26
2022-10-15T18:29:43.155Z,10.24
2022-10-15T18:32:17.843Z,10.23
2022-10-15T18:34:47.566Z,10.24
2022-10-15T18:37:17.696Z,10.18
2022-10-15T18:39:46.414Z,10.14
2022-10-15T18:42:14.863Z,10.15
2022-10-15T18:44:43.643Z,10.23
2022-10-15T18:47:12.270Z,10.15
2022-10-15T18:49:40.640Z,10.13
2022-10-15T18:52:21.920Z,10.07
2022-10-15T18:55:01.332Z,10.09
2022-10-15T18:57:31.835Z,10.05
2022-10-15T19:00:08.709Z,9.97
2022-10-15T19:02:37.144Z,10.09
2022-10-15T19:05:06.513Z,10.09
2022-10-15T19:07:35.240Z,10.12
2022-10-15T19:10:05.886Z,10.08
2022-10-15T19:12:34.335Z,10.09
2022-10-15T19:15:02.801Z,10.11
2022-10-15T19:17:31.779Z,10.12
2022-10-15T19:20:00.085Z,10.05
2022-10-15T19:22:30.194Z,10.07
2022-10-15T19:24:58.887Z,10.04
2022-10-15T19:27:29.078Z,10.04
2022-10-15T19:29:57.443Z,9.97
2022-10-15T19:32:30.034Z,10.05
2022-10-15T19:34:59.129Z,9.97
2022-10-15T19:37:28.037Z,9.83
2022-10-15T19:39:59.366Z,9.80
2022-10-15T19:42:32.245Z,9.81
2022-10-15T19:45:02.898Z,9.81
2022-10-15T19:47:32.625Z,9.71
2022-10-15T19:50:03.193Z,9.70
2022-10-15T19:52:34.593Z,9.73
2022-10-15T19:55:03.839Z,9.62
2022-10-15T19:57:36.457Z,9.69
2022-10-15T20:00:05.715Z,9.63
2022-10-15T20:02:37.067Z,9.64
2022-10-15T20:05:06.659Z,9.60
2022-10-15T20:07:36.226Z,9.63
2022-10-15T20:10:09.084Z,9.60
2022-10-15T20:12:39.416Z,9.50
2022-10-15T20:15:09.917Z,9.48
2022-10-15T20:17:38.878Z,9.49
2022-10-15T20:20:08.130Z,9.48
2022-10-15T20:22:36.700Z,9.48
2022-10-15T20:25:05.659Z,9.38
2022-10-15T20:27:36.313Z,9.47
2022-10-15T20:30:09.176Z,9.47
2022-10-15T20:32:38.172Z,9.40
2022-10-15T20:35:09.674Z,9.42
2022-10-15T20:37:38.287Z,9.50
2022-10-15T20:40:10.486Z,9.58
2022-10-15T20:42:40.332Z,9.39
2022-10-15T20:45:15.257Z,9.19
2022-10-15T20:47:47.064Z,9.14
2022-10-15T20:50:20.992Z,9.14
2022-10-15T20:52:53.209Z,9.22
2022-10-15T20:55:23.243Z,9.31
2022-10-15T20:57:52.124Z,9.30
2022-10-15T21:00:22.912Z,9.38
2022-10-15T21:02:52.556Z,9.31
2022-10-15T21:05:23.795Z,9.16
2022-10-15T21:07:52.193Z,9.07
2022-10-15T21:10:21.982Z,9.01
2022-10-15T21:12:50.298Z,8.98
2022-10-15T21:15:20.606Z,8.97
2022-10-15T21:17:51.741Z,8.92
2022-10-15T21:20:20.917Z,8.80
2022-10-15T21:22:49.618Z,8.64
2022-10-15T21:25:22.853Z,8.50
2022-10-15T21:27:53.592Z,8.29
2022-10-15T21:30:23.279Z,8.05
2022-10-15T21:32:53.222Z,7.97
2022-10-15T21:35:22.334Z,7.91
2022-10-15T21:37:51.783Z,7.86
2022-10-15T21:40:22.259Z,7.85
2022-10-15T21:42:51.764Z,7.80
2022-10-15T21:45:22.163Z,7.78
2022-10-15T21:47:54.332Z,7.75
2022-10-15T21:50:22.761Z,7.76
2022-10-15T21:52:51.186Z,7.76
2022-10-15T21:55:19.896Z,7.78
2022-10-15T21:57:48.347Z,7.74
2022-10-15T22:00:18.424Z,7.75
2022-10-15T22:02:51.874Z,7.85
2022-10-15T22:05:22.225Z,7.89
2022-10-15T22:07:50.765Z,7.88
2022-10-15T22:10:20.457Z,7.83
2022-10-15T22:12:54.022Z,7.80
2022-10-15T22:15:23.074Z,7.78
2022-10-15T22:17:51.810Z,7.78
2022-10-15T22:20:24.219Z,7.77
2022-10-15T22:22:54.318Z,7.81
2022-10-15T22:25:25.066Z,7.79
2022-10-15T22:28:00.171Z,7.76
2022-10-15T22:30:29.874Z,7.74
2022-10-15T22:33:00.560Z,7.74
2022-10-15T22:35:34.285Z,7.68
2022-10-15T22:38:04.026Z,7.70
2022-10-15T22:40:32.923Z,7.62
2022-10-15T22:43:10.445Z,7.64
2022-10-15T22:45:39.229Z,7.59
2022-10-15T22:48:08.876Z,7.55
2022-10-15T22:50:40.162Z,7.57
2022-10-15T22:53:11.328Z,7.55
2022-10-15T22:55:57.474Z,7.51
2022-10-15T22:58:36.673Z,7.51
2022-10-15T23:01:11.628Z,7.50
2022-10-15T23:03:42.204Z,7.50
2022-10-15T23:06:12.899Z,7.47
2022-10-15T23:08:48.251Z,7.43
2022-10-15T23:11:20.956Z,7.42
2022-10-15T23:13:54.533Z,7.42
2022-10-15T23:16:26.503Z,7.37
2022-10-15T23:18:57.935Z,7.33
2022-10-15T23:21:31.706Z,7.30
2022-10-15T23:24:02.450Z,7.30
2022-10-15T23:26:33.041Z,7.34
2022-10-15T23:29:06.285Z,7.32
2022-10-15T23:31:37.876Z,7.28
2022-10-15T23:34:07.413Z,7.26
2022-10-15T23:36:43.098Z,7.29
2022-10-15T23:39:16.007Z,7.31
2022-10-15T23:41:47.449Z,7.29
2022-10-15T23:44:16.268Z,7.27
2022-10-15T23:46:44.901Z,7.26
2022-10-15T23:49:15.122Z,7.27
2022-10-15T23:51:46.729Z,7.36
2022-10-15T23:54:18.415Z,7.32
2022-10-15T23:56:49.176Z,7.32
2022-10-15T23:59:18.875Z,7.31
